createdAt,value
2016-06-05T00:00:50.448Z,0
2016-06-05T00:01:50.420Z,0
2016-06-05T00:02:50.391Z,0
2016-06-05T00:03:50.394Z,0
2016-06-05T00:04:50.366Z,0
2016-06-05T00:05:50.337Z,0
2016-06-05T00:06:50.324Z,0
2016-06-05T00:07:50.326Z,0
2016-06-05T00:08:50.142Z,0
2016-06-05T00:09:50.285Z,0
2016-06-05T00:10:50.257Z,0
2016-06-05T00:11:50.228Z,0
2016-06-05T00:12:51.466Z,0
2016-06-05T00:13:50.218Z,0
2016-06-05T00:14:50.189Z,0
2016-06-05T00:15:50.160Z,0
2016-06-05T00:16:49.991Z,0
2016-06-05T00:17:49.994Z,0
2016-06-05T00:18:56.216Z,0
2016-06-05T00:19:51.718Z,0
2016-06-05T00:20:50.081Z,0
2016-06-05T00:21:50.052Z,0
2016-06-05T00:22:50.054Z,0
2016-06-05T00:23:50.026Z,0
2016-06-05T00:24:50.013Z,0
2016-06-05T00:25:50.001Z,0
2016-06-05T00:26:49.956Z,4
2016-06-05T00:27:50.396Z,4
2016-06-05T00:28:49.789Z,4
2016-06-05T00:29:49.901Z,4
2016-06-05T00:30:49.904Z,0
2016-06-05T00:31:49.875Z,0
2016-06-05T00:32:49.863Z,0
2016-06-05T00:33:49.850Z,0
2016-06-05T00:34:49.821Z,0
2016-06-05T00:35:49.792Z,0
2016-06-05T00:36:49.780Z,0
2016-06-05T00:37:49.783Z,0
2016-06-05T00:38:49.738Z,0
2016-06-05T00:39:49.725Z,0
2016-06-05T00:40:49.713Z,0
2016-06-05T00:41:50.059Z,0
2016-06-05T00:42:50.358Z,0
2016-06-05T00:43:49.735Z,0
2016-06-05T00:44:49.630Z,0
2016-06-05T00:45:49.616Z,0
2016-06-05T00:46:49.603Z,0
2016-06-05T00:47:49.590Z,0
2016-06-05T00:48:49.562Z,4
2016-06-05T00:49:49.393Z,4
2016-06-05T00:50:49.521Z,4
2016-06-05T00:51:49.492Z,4
2016-06-05T00:52:49.479Z,4
2016-06-05T00:53:49.466Z,0
2016-06-05T00:54:49.453Z,0
2016-06-05T00:55:49.437Z,0
2016-06-05T00:56:49.409Z,0
2016-06-05T00:57:49.553Z,0
2016-06-05T00:58:49.729Z,0
2016-06-05T00:59:49.354Z,0
2016-06-05T01:00:49.326Z,0
2016-06-05T01:01:49.314Z,0
2016-06-05T01:02:49.300Z,0
2016-06-05T01:03:49.146Z,0
2016-06-05T01:04:49.259Z,0
2016-06-05T01:05:49.245Z,0
2016-06-05T01:06:48.920Z,0
2016-06-05T01:07:49.205Z,4
2016-06-05T01:08:49.035Z,4
2016-06-05T01:09:49.006Z,4
2016-06-05T01:10:49.166Z,4
2016-06-05T01:11:49.137Z,0
2016-06-05T01:12:49.108Z,0
2016-06-05T01:13:48.971Z,0
2016-06-05T01:14:49.082Z,0
2016-06-05T01:15:49.054Z,0
2016-06-05T01:16:49.041Z,0
2016-06-05T01:17:49.027Z,0
2016-06-05T01:18:49.015Z,0
2016-06-05T01:19:49.002Z,0
2016-06-05T01:20:48.802Z,0
2016-06-05T01:21:48.805Z,0
2016-06-05T01:22:48.948Z,0
2016-06-05T01:23:48.904Z,0
2016-06-05T01:24:48.906Z,0
2016-06-05T01:25:48.721Z,0
2016-06-05T01:26:48.865Z,0
2016-06-05T01:27:49.008Z,0
2016-06-05T01:28:48.964Z,0
2016-06-05T01:29:48.810Z,0
2016-06-05T01:30:48.797Z,0
2016-06-05T01:31:48.770Z,0
2016-06-05T01:32:48.740Z,0
2016-06-05T01:33:48.727Z,0
2016-06-05T01:34:48.714Z,0
2016-06-05T01:35:48.701Z,0
2016-06-05T01:36:48.673Z,0
2016-06-05T01:37:48.645Z,0
2016-06-05T01:38:48.647Z,0
2016-06-05T01:39:48.461Z,0
2016-06-05T01:40:48.606Z,0
2016-06-05T01:41:48.577Z,0
2016-06-05T01:42:50.049Z,0
2016-06-05T01:43:49.208Z,0
2016-06-05T01:44:48.351Z,0
2016-06-05T01:45:48.510Z,0
2016-06-05T01:46:48.496Z,0
2016-06-05T01:47:48.468Z,0
2016-06-05T01:48:48.440Z,0
2016-06-05T01:49:48.426Z,0
2016-06-05T01:50:48.414Z,0
2016-06-05T01:51:48.401Z,0
2016-06-05T01:52:48.357Z,0
2016-06-05T01:53:48.359Z,0
2016-06-05T01:54:48.331Z,0
2016-06-05T01:55:48.318Z,0
2016-06-05T01:56:48.305Z,0
2016-06-05T01:57:48.120Z,0
2016-06-05T01:58:48.559Z,0
2016-06-05T01:59:48.234Z,0
2016-06-05T02:00:48.223Z,0
2016-06-05T02:01:48.225Z,0
2016-06-05T02:02:48.181Z,0
2016-06-05T02:03:48.168Z,0
2016-06-05T02:04:48.139Z,0
2016-06-05T02:05:48.126Z,0
2016-06-05T02:06:48.097Z,0
2016-06-05T02:07:48.084Z,0
2016-06-05T02:08:48.072Z,0
2016-06-05T02:09:48.042Z,0
2016-06-05T02:10:48.030Z,0
2016-06-05T02:11:48.017Z,0
2016-06-05T02:12:48.895Z,0
2016-06-05T02:13:48.960Z,0
2016-06-05T02:14:47.963Z,0
2016-06-05T02:15:47.933Z,0
2016-06-05T02:16:47.905Z,0
2016-06-05T02:17:47.908Z,0
2016-06-05T02:18:47.879Z,0
2016-06-05T02:19:47.851Z,0
2016-06-05T02:20:47.838Z,0
2016-06-05T02:21:47.825Z,0
2016-06-05T02:22:47.812Z,0
2016-06-05T02:23:47.784Z,0
2016-06-05T02:24:47.770Z,4
2016-06-05T02:25:47.742Z,4
2016-06-05T02:26:47.714Z,4
2016-06-05T02:27:47.841Z,0
2016-06-05T02:28:48.547Z,0
2016-06-05T02:29:47.659Z,0
2016-06-05T02:30:47.662Z,4
2016-06-05T02:31:47.634Z,4
2016-06-05T02:32:47.620Z,0
2016-06-05T02:33:47.592Z,4
2016-06-05T02:34:47.579Z,4
2016-06-05T02:35:47.566Z,4
2016-06-05T02:36:47.537Z,8
2016-06-05T02:37:47.509Z,4
2016-06-05T02:38:47.496Z,8
2016-06-05T02:39:47.467Z,8
2016-06-05T02:40:47.454Z,8
2016-06-05T02:41:47.426Z,12
2016-06-05T02:42:47.772Z,12
2016-06-05T02:43:48.212Z,16
2016-06-05T02:44:47.372Z,16
2016-06-05T02:45:47.358Z,20
2016-06-05T02:46:47.330Z,20
2016-06-05T02:47:47.317Z,24
2016-06-05T02:48:47.305Z,28
2016-06-05T02:49:47.291Z,28
2016-06-05T02:50:47.278Z,32
2016-06-05T02:51:47.078Z,36
2016-06-05T02:52:47.222Z,40
2016-06-05T02:53:47.052Z,48
2016-06-05T02:54:47.179Z,52
2016-06-05T02:55:47.183Z,60
2016-06-05T02:56:47.154Z,64
2016-06-05T02:57:46.968Z,72
2016-06-05T02:58:47.129Z,76
2016-06-05T02:59:47.099Z,88
2016-06-05T03:00:47.054Z,96
2016-06-05T03:01:47.042Z,100
2016-06-05T03:02:47.029Z,116
2016-06-05T03:03:47.001Z,120
2016-06-05T03:04:46.831Z,132
2016-06-05T03:05:46.959Z,144
2016-06-05T03:06:46.945Z,160
2016-06-05T03:07:46.933Z,172
2016-06-05T03:08:46.905Z,188
2016-06-05T03:09:46.891Z,204
2016-06-05T03:10:46.895Z,224
2016-06-05T03:11:46.835Z,240
2016-06-05T03:12:46.853Z,260
2016-06-05T03:13:47.434Z,280
2016-06-05T03:14:46.811Z,300
2016-06-05T03:15:46.783Z,328
2016-06-05T03:16:46.755Z,352
2016-06-05T03:17:46.741Z,380
2016-06-05T03:18:46.713Z,412
2016-06-05T03:19:46.699Z,444
2016-06-05T03:20:46.671Z,480
2016-06-05T03:21:46.502Z,520
2016-06-05T03:22:46.645Z,564
2016-06-05T03:23:46.632Z,608
2016-06-05T03:24:46.604Z,656
2016-06-05T03:25:46.576Z,700
2016-06-05T03:26:46.547Z,744
2016-06-05T03:27:47.112Z,772
2016-06-05T03:28:47.865Z,808
2016-06-05T03:29:46.508Z,844
2016-06-05T03:30:46.479Z,884
2016-06-05T03:31:46.467Z,928
2016-06-05T03:32:46.454Z,972
2016-06-05T03:33:46.440Z,1024
2016-06-05T03:34:46.412Z,1076
2016-06-05T03:35:46.228Z,1124
2016-06-05T03:36:46.371Z,1184
2016-06-05T03:37:46.342Z,1240
2016-06-05T03:38:46.361Z,1300
2016-06-05T03:39:46.301Z,1360
2016-06-05T03:40:46.272Z,1424
2016-06-05T03:41:46.259Z,1488
2016-06-05T03:42:46.839Z,1552
2016-06-05T03:43:46.484Z,1624
2016-06-05T03:44:46.048Z,1688
2016-06-05T03:45:46.191Z,1756
2016-06-05T03:46:46.163Z,1828
2016-06-05T03:47:45.994Z,1896
2016-06-05T03:48:46.138Z,1972
2016-06-05T03:49:46.109Z,2056
2016-06-05T03:50:46.096Z,2252
2016-06-05T03:51:46.083Z,2404
2016-06-05T03:52:46.055Z,2368
2016-06-05T03:53:46.041Z,2368
2016-06-05T03:54:46.029Z,2452
2016-06-05T03:55:46.000Z,2532
2016-06-05T03:56:45.815Z,2608
2016-06-05T03:57:46.130Z,2692
2016-06-05T03:58:46.242Z,2784
2016-06-05T03:59:45.917Z,2872
2016-06-05T04:00:45.904Z,2928
2016-06-05T04:01:45.891Z,3008
2016-06-05T04:02:45.847Z,3104
2016-06-05T04:03:45.834Z,3216
2016-06-05T04:04:45.821Z,3324
2016-06-05T04:05:45.809Z,3452
2016-06-05T04:06:45.779Z,3512
2016-06-05T04:07:45.767Z,3536
2016-06-05T04:08:45.737Z,3660
2016-06-05T04:09:45.725Z,3736
2016-06-05T04:10:45.697Z,3800
2016-06-05T04:11:45.684Z,3900
2016-06-05T04:12:45.373Z,3968
2016-06-05T04:13:46.720Z,4136
2016-06-05T04:14:45.629Z,4300
2016-06-05T04:15:45.476Z,4244
2016-06-05T04:16:45.588Z,4196
2016-06-05T04:17:45.582Z,4268
2016-06-05T04:18:45.581Z,4348
2016-06-05T04:19:45.595Z,4436
2016-06-05T04:20:45.610Z,4524
2016-06-05T04:21:45.640Z,4620
2016-06-05T04:22:45.620Z,4736
2016-06-05T04:23:45.632Z,4792
2016-06-05T04:24:45.598Z,4840
2016-06-05T04:25:45.595Z,4880
2016-06-05T04:26:45.577Z,4936
2016-06-05T04:27:45.588Z,4988
2016-06-05T04:28:45.564Z,5048
2016-06-05T04:29:45.554Z,5112
2016-06-05T04:30:45.545Z,5176
2016-06-05T04:31:45.504Z,5240
2016-06-05T04:32:45.495Z,5304
2016-06-05T04:33:45.482Z,5364
2016-06-05T04:34:45.456Z,5424
2016-06-05T04:35:45.303Z,5492
2016-06-05T04:36:45.432Z,5560
2016-06-05T04:37:45.419Z,5636
2016-06-05T04:38:45.236Z,5708
2016-06-05T04:39:45.378Z,5780
2016-06-05T04:40:45.210Z,5852
2016-06-05T04:41:45.338Z,5924
2016-06-05T04:42:45.998Z,5996
2016-06-05T04:43:45.314Z,6064
2016-06-05T04:44:45.286Z,6140
2016-06-05T04:45:45.272Z,6204
2016-06-05T04:46:45.245Z,6272
2016-06-05T04:47:45.231Z,6336
2016-06-05T04:48:45.219Z,6392
2016-06-05T04:49:45.190Z,6452
2016-06-05T04:50:45.177Z,6516
2016-06-05T04:51:45.180Z,6600
2016-06-05T04:52:45.136Z,6700
2016-06-05T04:53:45.123Z,6816
2016-06-05T04:54:45.110Z,7036
2016-06-05T04:55:45.066Z,7612
2016-06-05T04:56:45.068Z,9860
2016-06-05T04:57:45.103Z,12736
2016-06-05T04:58:45.964Z,16372
2016-06-05T04:59:45.014Z,16540
2016-06-05T05:00:44.985Z,14928
2016-06-05T05:01:44.972Z,14608
2016-06-05T05:02:44.960Z,13988
2016-06-05T05:03:44.931Z,16504
2016-06-05T05:04:44.934Z,19232
2016-06-05T05:05:44.749Z,18560
2016-06-05T05:06:44.877Z,16248
2016-06-05T05:07:44.879Z,13940
2016-06-05T05:08:44.851Z,10124
2016-06-05T05:09:44.854Z,8712
2016-06-05T05:10:44.841Z,8260
2016-06-05T05:11:44.796Z,8376
2016-06-05T05:12:44.798Z,9216
2016-06-05T05:13:45.537Z,9560
2016-06-05T05:14:44.757Z,8644
2016-06-05T05:15:44.745Z,10836
2016-06-05T05:16:44.747Z,16112
2016-06-05T05:17:44.703Z,13404
2016-06-05T05:18:44.690Z,11200
2016-06-05T05:19:44.677Z,12680
2016-06-05T05:20:44.648Z,11844
2016-06-05T05:21:44.636Z,10512
2016-06-05T05:22:44.608Z,9124
2016-06-05T05:23:44.595Z,8324
2016-06-05T05:24:44.597Z,7800
2016-06-05T05:25:44.428Z,7708
2016-06-05T05:26:44.572Z,7712
2016-06-05T05:27:44.589Z,7716
2016-06-05T05:28:44.374Z,7724
2016-06-05T05:29:44.516Z,7740
2016-06-05T05:30:44.488Z,7780
2016-06-05T05:31:44.475Z,7828
2016-06-05T05:32:44.306Z,7868
2016-06-05T05:33:44.433Z,7932
2016-06-05T05:34:44.421Z,8000
2016-06-05T05:35:44.407Z,8092
2016-06-05T05:36:44.395Z,8196
2016-06-05T05:37:44.382Z,8340
2016-06-05T05:38:44.354Z,8520
2016-06-05T05:39:44.340Z,8712
2016-06-05T05:40:44.327Z,8928
2016-06-05T05:41:44.315Z,9156
2016-06-05T05:42:44.662Z,9372
2016-06-05T05:43:45.242Z,9692
2016-06-05T05:44:44.244Z,10036
2016-06-05T05:45:44.248Z,10416
2016-06-05T05:46:44.218Z,10796
2016-06-05T05:47:44.221Z,11184
2016-06-05T05:48:44.208Z,11556
2016-06-05T05:49:44.195Z,11868
2016-06-05T05:50:44.167Z,14568
2016-06-05T05:51:44.139Z,19840
2016-06-05T05:52:43.984Z,25696
2016-06-05T05:53:44.112Z,32288
2016-06-05T05:54:44.100Z,38336
2016-06-05T05:55:44.102Z,43904
2016-06-05T05:56:44.058Z,47296
2016-06-05T05:57:44.077Z,48384
2016-06-05T05:58:44.048Z,49408
2016-06-05T05:59:44.410Z,49056
2016-06-05T06:00:44.569Z,48608
2016-06-05T06:01:43.853Z,48384
2016-06-05T06:02:43.980Z,48704
2016-06-05T06:03:43.968Z,49536
2016-06-05T06:04:43.955Z,51136
2016-06-05T06:05:43.926Z,52640
2016-06-05T06:06:43.913Z,53152
2016-06-05T06:07:43.915Z,52992
2016-06-05T06:08:43.887Z,52736
2016-06-05T06:09:43.905Z,53312
2016-06-05T06:10:43.876Z,53504
2016-06-05T06:11:43.864Z,53856
2016-06-05T06:12:44.335Z,54176
2016-06-05T06:13:44.323Z,54720
2016-06-05T06:14:43.825Z,55776
2016-06-05T06:15:43.812Z,56992
2016-06-05T06:16:43.799Z,57952
2016-06-05T06:17:43.786Z,58016
2016-06-05T06:18:43.789Z,58176
2016-06-05T06:19:43.776Z,58656
2016-06-05T06:20:43.764Z,58976
2016-06-05T06:21:43.750Z,58272
2016-06-05T06:22:43.737Z,57312
2016-06-05T06:23:43.739Z,56960
2016-06-05T06:24:43.571Z,57728
2016-06-05T06:25:43.714Z,57952
2016-06-05T06:26:43.700Z,57312
2016-06-05T06:27:44.438Z,58048
2016-06-05T06:28:43.769Z,60704
2016-06-05T06:29:43.677Z,63200
2016-06-05T06:30:43.665Z,65184
2016-06-05T06:31:43.668Z,65760
2016-06-05T06:32:43.655Z,63840
2016-06-05T06:33:43.657Z,59456
2016-06-05T06:34:43.660Z,56640
2016-06-05T06:35:43.647Z,56672
2016-06-05T06:36:43.634Z,59424
2016-06-05T06:37:43.637Z,64160
2016-06-05T06:38:43.624Z,67872
2016-06-05T06:39:43.596Z,69312
2016-06-05T06:40:43.598Z,68096
2016-06-05T06:41:43.601Z,65984
2016-06-05T06:42:43.448Z,64544
2016-06-05T06:43:43.606Z,64640
2016-06-05T06:44:43.593Z,65280
2016-06-05T06:45:43.581Z,66368
2016-06-05T06:46:43.567Z,67840
2016-06-05T06:47:43.555Z,68512
2016-06-05T06:48:43.557Z,66496
2016-06-05T06:49:43.559Z,63648
2016-06-05T06:50:43.562Z,62656
2016-06-05T06:51:43.550Z,63200
2016-06-05T06:52:43.568Z,64928
2016-06-05T06:53:43.539Z,66368
2016-06-05T06:54:43.526Z,69248
2016-06-05T06:55:43.528Z,71552
2016-06-05T06:56:43.516Z,70976
2016-06-05T06:57:44.253Z,69888
2016-06-05T06:58:43.381Z,68928
2016-06-05T06:59:43.352Z,67776
2016-06-05T07:00:43.511Z,66528
2016-06-05T07:01:43.499Z,66368
2016-06-05T07:02:43.501Z,69952
2016-06-05T07:03:43.488Z,73408
2016-06-05T07:04:43.491Z,72800
2016-06-05T07:05:43.494Z,71776
2016-06-05T07:06:43.481Z,70112
2016-06-05T07:07:43.483Z,69600
2016-06-05T07:08:43.471Z,70336
2016-06-05T07:09:43.474Z,70016
2016-06-05T07:10:43.476Z,69632
2016-06-05T07:11:43.462Z,70080
2016-06-05T07:12:43.481Z,70016
2016-06-05T07:13:43.313Z,69216
2016-06-05T07:14:43.455Z,68352
2016-06-05T07:15:43.458Z,67776
2016-06-05T07:16:43.460Z,67328
2016-06-05T07:17:43.447Z,65888
2016-06-05T07:18:43.435Z,64576
2016-06-05T07:19:43.454Z,64832
2016-06-05T07:20:43.425Z,66816
2016-06-05T07:21:43.442Z,70112
2016-06-05T07:22:43.430Z,73120
2016-06-05T07:23:43.448Z,75648
2016-06-05T07:24:43.436Z,77312
2016-06-05T07:25:43.438Z,77600
2016-06-05T07:26:43.441Z,76384
2016-06-05T07:27:43.287Z,73536
2016-06-05T07:28:43.431Z,70880
2016-06-05T07:29:43.433Z,67392
2016-06-05T07:30:43.420Z,64736
2016-06-05T07:31:43.423Z,62880
2016-06-05T07:32:43.410Z,64000
2016-06-05T07:33:43.413Z,66240
2016-06-05T07:34:43.416Z,68032
2016-06-05T07:35:43.402Z,68000
2016-06-05T07:36:43.421Z,69088
2016-06-05T07:37:43.423Z,71488
2016-06-05T07:38:43.411Z,74144
2016-06-05T07:39:43.413Z,76288
2016-06-05T07:40:43.416Z,76480
2016-06-05T07:41:43.402Z,73632
2016-06-05T07:42:43.405Z,69472
2016-06-05T07:43:43.705Z,67232
2016-06-05T07:44:44.301Z,68960
2016-06-05T07:45:43.413Z,71648
2016-06-05T07:46:43.401Z,74560
2016-06-05T07:47:43.388Z,74432
2016-06-05T07:48:43.390Z,73312
2016-06-05T07:49:43.393Z,73280
2016-06-05T07:50:43.396Z,73824
2016-06-05T07:51:43.242Z,77696
2016-06-05T07:52:43.386Z,79232
2016-06-05T07:53:43.248Z,78528
2016-06-05T07:54:43.391Z,76480
2016-06-05T07:55:43.394Z,71616
2016-06-05T07:56:43.381Z,68576
2016-06-05T07:57:43.383Z,69088
2016-06-05T07:58:43.528Z,73120
2016-06-05T07:59:43.389Z,76064
2016-06-05T08:00:43.407Z,79712
2016-06-05T08:01:43.395Z,81184
2016-06-05T08:02:43.381Z,82400
2016-06-05T08:03:43.383Z,81568
2016-06-05T08:04:43.230Z,82496
2016-06-05T08:05:43.405Z,82144
2016-06-05T08:06:43.392Z,81440
2016-06-05T08:07:43.379Z,81216
2016-06-05T08:08:43.397Z,80096
2016-06-05T08:09:43.385Z,79744
2016-06-05T08:10:43.371Z,80128
2016-06-05T08:11:43.390Z,82656
2016-06-05T08:12:43.752Z,84320
2016-06-05T08:13:43.489Z,88800
2016-06-05T08:14:43.382Z,90688
2016-06-05T08:15:43.400Z,89152
2016-06-05T08:16:43.403Z,85696
2016-06-05T08:17:43.390Z,82816
2016-06-05T08:18:43.393Z,83872
2016-06-05T08:19:43.395Z,86560
2016-06-05T08:20:43.382Z,89184
2016-06-05T08:21:43.385Z,87712
2016-06-05T08:22:43.403Z,86048
2016-06-05T08:23:43.391Z,83616
2016-06-05T08:24:43.393Z,83456
2016-06-05T08:25:43.381Z,86240
2016-06-05T08:26:43.383Z,91200
2016-06-05T08:27:43.355Z,94944
2016-06-05T08:28:44.936Z,94080
2016-06-05T08:29:43.376Z,89440
2016-06-05T08:30:43.394Z,86176
2016-06-05T08:31:43.397Z,86720
2016-06-05T08:32:43.415Z,90112
2016-06-05T08:33:43.387Z,93600
2016-06-05T08:34:43.389Z,96832
2016-06-05T08:35:43.377Z,96800
2016-06-05T08:36:43.410Z,94336
2016-06-05T08:37:43.413Z,93280
2016-06-05T08:38:43.384Z,91360
2016-06-05T08:39:43.402Z,90304
2016-06-05T08:40:43.390Z,91488
2016-06-05T08:41:43.393Z,91360
2016-06-05T08:42:43.255Z,92672
2016-06-05T08:43:44.882Z,93024
2016-06-05T08:44:43.401Z,94016
2016-06-05T08:45:43.388Z,94912
2016-06-05T08:46:43.390Z,93728
2016-06-05T08:47:43.424Z,94240
2016-06-05T08:48:43.412Z,93888
2016-06-05T08:49:43.398Z,94976
2016-06-05T08:50:43.401Z,95936
2016-06-05T08:51:43.404Z,98112
2016-06-05T08:52:43.390Z,98176
2016-06-05T08:53:43.409Z,97280
2016-06-05T08:54:43.411Z,96960
2016-06-05T08:55:43.414Z,97344
2016-06-05T08:56:43.417Z,100192
2016-06-05T08:57:43.451Z,102112
2016-06-05T08:58:43.750Z,88960
2016-06-05T08:59:43.409Z,44064
2016-06-05T09:00:43.397Z,11384
2016-06-05T09:01:43.415Z,10760
2016-06-05T09:02:43.402Z,10600
2016-06-05T09:03:43.405Z,10476
2016-06-05T09:04:43.392Z,10332
2016-06-05T09:05:43.395Z,10320
2016-06-05T09:06:43.381Z,10292
2016-06-05T09:07:43.400Z,10036
2016-06-05T09:08:43.231Z,9916
2016-06-05T09:09:43.374Z,9732
2016-06-05T09:10:43.377Z,9660
2016-06-05T09:11:43.379Z,9416
2016-06-05T09:12:43.538Z,9056
2016-06-05T09:13:43.385Z,8796
2016-06-05T09:14:43.356Z,8640
2016-06-05T09:15:43.359Z,8524
2016-06-05T09:16:43.346Z,8516
2016-06-05T09:17:43.349Z,8540
2016-06-05T09:18:43.335Z,8680
2016-06-05T09:19:43.338Z,8824
2016-06-05T09:20:43.326Z,8752
2016-06-05T09:21:43.313Z,8712
2016-06-05T09:22:43.315Z,8656
2016-06-05T09:23:43.301Z,8584
2016-06-05T09:24:43.304Z,8580
2016-06-05T09:25:43.137Z,8680
2016-06-05T09:26:43.295Z,8736
2016-06-05T09:27:44.375Z,8676
2016-06-05T09:28:44.722Z,8548
2016-06-05T09:29:43.240Z,8328
2016-06-05T09:30:43.243Z,8248
2016-06-05T09:31:43.230Z,8288
2016-06-05T09:32:43.233Z,8300
2016-06-05T09:33:43.236Z,8272
2016-06-05T09:34:43.223Z,8308
2016-06-05T09:35:43.209Z,8348
2016-06-05T09:36:43.211Z,8324
2016-06-05T09:37:43.199Z,8200
2016-06-05T09:38:43.171Z,8052
2016-06-05T09:39:43.174Z,7884
2016-06-05T09:40:43.144Z,7804
2016-06-05T09:41:43.148Z,7792
2016-06-05T09:42:43.447Z,7796
2016-06-05T09:43:43.480Z,7772
2016-06-05T09:44:43.124Z,7808
2016-06-05T09:45:43.111Z,7840
2016-06-05T09:46:43.114Z,7840
2016-06-05T09:47:43.085Z,7840
2016-06-05T09:48:43.088Z,7800
2016-06-05T09:49:43.060Z,7764
2016-06-05T09:50:43.063Z,7732
2016-06-05T09:51:43.065Z,7688
2016-06-05T09:52:43.037Z,7664
2016-06-05T09:53:43.023Z,7668
2016-06-05T09:54:42.854Z,7668
2016-06-05T09:55:43.013Z,7676
2016-06-05T09:56:42.985Z,7764
2016-06-05T09:57:43.237Z,7820
2016-06-05T09:58:42.834Z,7796
2016-06-05T09:59:42.978Z,7764
2016-06-05T10:00:42.965Z,7800
2016-06-05T10:01:42.936Z,7752
2016-06-05T10:02:42.939Z,7744
2016-06-05T10:03:42.909Z,7676
2016-06-05T10:04:42.897Z,7648
2016-06-05T10:05:42.914Z,7580
2016-06-05T10:06:42.903Z,7560
2016-06-05T10:07:42.874Z,7580
2016-06-05T10:08:42.705Z,7580
2016-06-05T10:09:42.847Z,7608
2016-06-05T10:10:42.678Z,7624
2016-06-05T10:11:42.822Z,7624
2016-06-05T10:12:43.263Z,7608
2016-06-05T10:13:43.530Z,7584
2016-06-05T10:14:42.798Z,7536
2016-06-05T10:15:42.785Z,7500
2016-06-05T10:16:42.804Z,7528
2016-06-05T10:17:42.760Z,7560
2016-06-05T10:18:42.778Z,7596
2016-06-05T10:19:42.734Z,7548
2016-06-05T10:20:42.721Z,7576
2016-06-05T10:21:42.567Z,7652
2016-06-05T10:22:42.710Z,7696
2016-06-05T10:23:42.698Z,7728
2016-06-05T10:24:42.685Z,7716
2016-06-05T10:25:42.673Z,7728
2016-06-05T10:26:42.675Z,7736
2016-06-05T10:27:43.036Z,7732
2016-06-05T10:28:43.056Z,7768
2016-06-05T10:29:42.637Z,7844
2016-06-05T10:30:42.623Z,7888
2016-06-05T10:31:42.609Z,7908
2016-06-05T10:32:42.441Z,7872
2016-06-05T10:33:42.584Z,7772
2016-06-05T10:34:42.415Z,7764
2016-06-05T10:35:42.558Z,7880
2016-06-05T10:36:42.545Z,7960
2016-06-05T10:37:42.548Z,8068
2016-06-05T10:38:42.519Z,8100
2016-06-05T10:39:42.366Z,8068
2016-06-05T10:40:42.509Z,8120
2016-06-05T10:41:42.496Z,8312
2016-06-05T10:42:42.499Z,8204
2016-06-05T10:43:43.252Z,7692
2016-06-05T10:44:42.457Z,7552
2016-06-05T10:45:42.445Z,7624
2016-06-05T10:46:42.275Z,7752
2016-06-05T10:47:42.434Z,7908
2016-06-05T10:48:42.405Z,8088
2016-06-05T10:49:42.393Z,8428
2016-06-05T10:50:42.380Z,8988
2016-06-05T10:51:42.382Z,9500
2016-06-05T10:52:42.370Z,8512
2016-06-05T10:53:42.356Z,7076
2016-06-05T10:54:42.344Z,6848
2016-06-05T10:55:42.346Z,7512
2016-06-05T10:56:42.334Z,7600
2016-06-05T10:57:42.179Z,7532
2016-06-05T10:58:43.261Z,7464
2016-06-05T10:59:42.295Z,7408
2016-06-05T11:00:42.281Z,7404
2016-06-05T11:01:42.269Z,7420
2016-06-05T11:02:42.256Z,7328
2016-06-05T11:03:42.243Z,7208
2016-06-05T11:04:42.246Z,7184
2016-06-05T11:05:42.233Z,7224
2016-06-05T11:06:42.203Z,7288
2016-06-05T11:07:42.206Z,7288
2016-06-05T11:08:42.194Z,7284
2016-06-05T11:09:42.181Z,7268
2016-06-05T11:10:42.169Z,7228
2016-06-05T11:11:42.155Z,7236
2016-06-05T11:12:43.080Z,7324
2016-06-05T11:13:42.692Z,7292
2016-06-05T11:14:42.133Z,7256
2016-06-05T11:15:42.118Z,7212
2016-06-05T11:16:42.105Z,7136
2016-06-05T11:17:42.093Z,7104
2016-06-05T11:18:42.080Z,7188
2016-06-05T11:19:42.068Z,7384
2016-06-05T11:20:42.070Z,7516
2016-06-05T11:21:42.041Z,7576
2016-06-05T11:22:42.043Z,7664
2016-06-05T11:23:42.015Z,7608
2016-06-05T11:24:42.018Z,7572
2016-06-05T11:25:41.990Z,7436
2016-06-05T11:26:41.977Z,7344
2016-06-05T11:27:41.980Z,7276
2016-06-05T11:28:42.607Z,7156
2016-06-05T11:29:41.798Z,7080
2016-06-05T11:30:41.940Z,7020
2016-06-05T11:31:41.928Z,7044
2016-06-05T11:32:41.915Z,7188
2016-06-05T11:33:41.917Z,7296
2016-06-05T11:34:41.904Z,7336
2016-06-05T11:35:41.907Z,7292
2016-06-05T11:36:41.878Z,7236
2016-06-05T11:37:41.850Z,7248
2016-06-05T11:38:41.869Z,6908
2016-06-05T11:39:41.840Z,7472
2016-06-05T11:40:41.827Z,7448
2016-06-05T11:41:41.814Z,7520
2016-06-05T11:42:42.504Z,7616
2016-06-05T11:43:42.600Z,7508
2016-06-05T11:44:41.791Z,7596
2016-06-05T11:45:41.778Z,7740
2016-06-05T11:46:41.765Z,7908
2016-06-05T11:47:41.752Z,7712
2016-06-05T11:48:41.739Z,7392
2016-06-05T11:49:41.726Z,7184
2016-06-05T11:50:41.713Z,7120
2016-06-05T11:51:41.699Z,7140
2016-06-05T11:52:41.718Z,7304
2016-06-05T11:53:41.691Z,7552
2016-06-05T11:54:41.662Z,7712
2016-06-05T11:55:41.523Z,7468
2016-06-05T11:56:41.635Z,7268
2016-06-05T11:57:42.716Z,7124
2016-06-05T11:58:41.500Z,7260
2016-06-05T11:59:41.628Z,7444
2016-06-05T12:00:41.615Z,7648
2016-06-05T12:01:41.601Z,7592
2016-06-05T12:02:41.573Z,8264
2016-06-05T12:03:41.576Z,8304
2016-06-05T12:04:41.563Z,8252
2016-06-05T12:05:41.551Z,8224
2016-06-05T12:06:41.538Z,8184
2016-06-05T12:07:41.524Z,7916
2016-06-05T12:08:41.528Z,7676
2016-06-05T12:09:41.515Z,7420
2016-06-05T12:10:41.486Z,6892
2016-06-05T12:11:41.489Z,6516
2016-06-05T12:12:41.320Z,6252
2016-06-05T12:13:40.994Z,6116
2016-06-05T12:14:41.449Z,5872
2016-06-05T12:15:41.453Z,6388
2016-06-05T12:16:41.439Z,6640
2016-06-05T12:17:41.254Z,6928
2016-06-05T12:18:41.398Z,6968
2016-06-05T12:19:41.400Z,6920
2016-06-05T12:20:41.388Z,6628
2016-06-05T12:21:41.375Z,6420
2016-06-05T12:22:41.205Z,6276
2016-06-05T12:23:41.349Z,6300
2016-06-05T12:24:41.335Z,6356
2016-06-05T12:25:41.339Z,6312
2016-06-05T12:26:41.309Z,6172
2016-06-05T12:27:41.375Z,6304
2016-06-05T12:28:42.393Z,6480
2016-06-05T12:29:41.302Z,6556
2016-06-05T12:30:41.258Z,7036
2016-06-05T12:31:41.245Z,7428
2016-06-05T12:32:41.092Z,7972
2016-06-05T12:33:41.235Z,8844
2016-06-05T12:34:41.223Z,9728
2016-06-05T12:35:41.209Z,9720
2016-06-05T12:36:41.195Z,9448
2016-06-05T12:37:41.199Z,9320
2016-06-05T12:38:41.186Z,8892
2016-06-05T12:39:41.158Z,8512
2016-06-05T12:40:41.003Z,8616
2016-06-05T12:41:41.148Z,8680
2016-06-05T12:42:41.478Z,8080
2016-06-05T12:43:41.153Z,8032
2016-06-05T12:44:41.109Z,7660
2016-06-05T12:45:41.111Z,7040
2016-06-05T12:46:41.098Z,6560
2016-06-05T12:47:41.100Z,5972
2016-06-05T12:48:41.057Z,6180
2016-06-05T12:49:41.091Z,6424
2016-06-05T12:50:41.046Z,6220
2016-06-05T12:51:41.033Z,6052
2016-06-05T12:52:41.021Z,5980
2016-06-05T12:53:41.008Z,5912
2016-06-05T12:54:41.010Z,5864
2016-06-05T12:55:41.013Z,5828
2016-06-05T12:56:40.985Z,5880
2016-06-05T12:57:40.972Z,5940
2016-06-05T12:58:41.834Z,5964
2016-06-05T12:59:40.945Z,6048
2016-06-05T13:00:40.933Z,6216
2016-06-05T13:01:40.920Z,6416
2016-06-05T13:02:40.937Z,6648
2016-06-05T13:03:40.910Z,6824
2016-06-05T13:04:40.896Z,6936
2016-06-05T13:05:40.728Z,7116
2016-06-05T13:06:40.871Z,7280
2016-06-05T13:07:40.858Z,7428
2016-06-05T13:08:40.845Z,7584
2016-06-05T13:09:40.831Z,7500
2016-06-05T13:10:40.834Z,7384
2016-06-05T13:11:40.822Z,7084
2016-06-05T13:12:41.731Z,6704
2016-06-05T13:13:40.827Z,6592
2016-06-05T13:14:40.783Z,6820
2016-06-05T13:15:40.755Z,7136
2016-06-05T13:16:40.757Z,7216
2016-06-05T13:17:40.744Z,7168
2016-06-05T13:18:40.747Z,7500
2016-06-05T13:19:40.577Z,7284
2016-06-05T13:20:40.736Z,6644
2016-06-05T13:21:40.724Z,6124
2016-06-05T13:22:40.679Z,6176
2016-06-05T13:23:40.693Z,6484
2016-06-05T13:24:40.547Z,6560
2016-06-05T13:25:40.714Z,6520
2016-06-05T13:26:40.724Z,6760
2016-06-05T13:27:41.172Z,6908
2016-06-05T13:28:40.566Z,6864
2016-06-05T13:29:40.734Z,6984